Аэропорт: Нижневартовск. Нижневартовск

ICAO: USNN

METAR:
2020-06-02 07:30:00
USNN 020730Z 01002MPS 330V050 9999 -SHRA BKN043CB 09/05 Q1008 R03/0///65 NOSIG RMK QFE752
METAR:
2020-06-02 05:00:00
TAF USNN 020500Z 0206/0306 35003G09MPS 9999 SCT030 TEMPO 0206/0215 6000 -SHRA BKN017CB TEMPO 0215/0303 5000 -SHRA SCT007 BKN016CB